Time;durP1;ratioP1;P1;durP2;ratioP2;P2;SDS_P1;SDS_P2;PMS_P1;PMS_P2;Temp;Humidity;BMP_temperature;BMP_pressure;BME280_temperature;BME280_humidity;BME280_pressure;Samples;Min_cycle;Max_cycle;Signal;HPM_P1;HPM_P2
2022/01/27 00:04:26;;;;;;;2.95;1.37;;;3.80;99.90;;;;;;4439691;32;20084;-68
2022/01/27 00:06:52;;;;;;;1.52;1.42;;;3.80;99.90;;;;;;4441147;32;20138;-68
2022/01/27 00:09:30;;;;;;;1.87;1.10;;;3.80;99.90;;;;;;4442745;32;20141;-68
2022/01/27 00:11:56;;;;;;;0.80;0.80;;;3.80;99.90;;;;;;4442691;32;20458;-69
2022/01/27 00:14:22;;;;;;;1.90;1.75;;;3.80;99.90;;;;;;4442489;32;20049;-68
2022/01/27 00:16:58;;;;;;;1.20;1.10;;;3.70;99.90;;;;;;4436035;32;20459;-68
2022/01/27 00:19:24;;;;;;;8.02;1.92;;;3.70;99.90;;;;;;4442089;32;20065;-68
2022/01/27 00:21:50;;;;;;;0.98;0.95;;;3.70;99.90;;;;;;4439720;32;20097;-69
2022/01/27 00:24:16;;;;;;;18.33;1.37;;;3.70;99.90;;;;;;4441144;32;20056;-69
2022/01/27 00:26:42;;;;;;;2.90;1.75;;;3.70;99.90;;;;;;4439401;32;20065;-69
2022/01/27 00:29:07;;;;;;;1.58;1.48;;;3.70;99.90;;;;;;4444216;32;20128;-69
2022/01/27 00:31:33;;;;;;;2.25;1.62;;;3.60;99.90;;;;;;4443413;32;20069;-69
2022/01/27 00:34:03;;;;;;;0.68;0.68;;;3.70;99.90;;;;;;4443840;32;20423;-69
2022/01/27 00:36:29;;;;;;;1.27;1.17;;;3.70;99.90;;;;;;4441853;32;20078;-69
2022/01/27 00:38:55;;;;;;;1.30;1.15;;;3.70;99.90;;;;;;4444266;32;20065;-69
2022/01/27 00:41:21;;;;;;;4.25;1.92;;;3.80;99.90;;;;;;4440478;32;20115;-69
2022/01/27 00:43:48;;;;;;;0.50;0.50;;;3.80;99.90;;;;;;4442644;32;20069;-69
2022/01/27 00:46:16;;;;;;;1.37;1.17;;;3.70;99.90;;;;;;4441549;32;20427;-69
2022/01/27 00:48:43;;;;;;;2.55;1.33;;;3.70;99.90;;;;;;4432609;32;20105;-68
2022/01/27 00:51:11;;;;;;;10.93;2.28;;;3.70;99.90;;;;;;4440725;32;20104;-69
2022/01/27 00:53:49;;;;;;;3.62;2.08;;;3.60;99.90;;;;;;4440412;32;20419;-69
2022/01/27 00:59:25;;;;;;;1.30;0.98;;;3.70;99.90;;;;;;4435561;32;20068;-68
2022/01/27 01:01:54;;;;;;;1.33;1.00;;;3.70;99.90;;;;;;4441174;32;20173;-68
2022/01/27 01:04:26;;;;;;;3.58;1.33;;;3.80;99.90;;;;;;4438654;32;20521;-68
2022/01/27 01:06:53;;;;;;;0.62;0.62;;;3.70;99.90;;;;;;4444154;32;20460;-69
2022/01/27 01:11:06;;;;;;;0.55;0.55;;;3.70;99.90;;;;;;4443031;32;20096;-69
2022/01/27 01:12:54;;;;;;;2.62;1.87;;;3.70;99.90;;;;;;4441237;32;20572;-70
2022/01/27 01:14:57;;;;;;;0.50;0.50;;;3.70;99.90;;;;;;4439235;32;20162;-69
2022/01/27 01:17:32;;;;;;;1.23;1.12;;;3.80;99.90;;;;;;4442800;32;20381;-69
2022/01/27 01:20:18;;;;;;;1.92;1.23;;;3.80;99.90;;;;;;4443348;32;20154;-70
2022/01/27 01:31:12;;;;;;;1.80;1.02;;;3.80;99.90;;;;;;4438487;32;20100;-69
2022/01/27 01:33:40;;;;;;;0.40;0.40;;;3.80;99.90;;;;;;4440855;32;20084;-69
2022/01/27 01:36:14;;;;;;;6.60;1.65;;;3.80;99.90;;;;;;4441528;32;20053;-69
2022/01/27 01:38:41;;;;;;;1.58;1.30;;;3.80;99.90;;;;;;4437186;32;20544;-69
2022/01/27 01:41:06;;;;;;;3.42;1.23;;;3.80;99.90;;;;;;4441149;32;20065;-69
2022/01/27 01:43:32;;;;;;;1.02;1.02;;;3.80;99.90;;;;;;4440257;32;20081;-69
2022/01/27 01:45:57;;;;;;;0.75;0.75;;;3.90;99.90;;;;;;4442047;32;20081;-70
2022/01/27 01:48:23;;;;;;;0.75;0.75;;;3.80;99.90;;;;;;4441804;32;20061;-69
2022/01/27 01:50:50;;;;;;;0.93;0.93;;;3.80;99.90;;;;;;4439899;32;20119;-69
2022/01/27 01:53:16;;;;;;;4.37;0.93;;;3.80;99.90;;;;;;4439786;32;20147;-69
2022/01/27 01:55:42;;;;;;;0.62;0.62;;;3.90;99.90;;;;;;4443152;32;20085;-69
2022/01/27 01:58:08;;;;;;;1.17;1.10;;;3.90;99.90;;;;;;4435936;32;20068;-69
2022/01/27 02:00:34;;;;;;;0.70;0.70;;;3.90;99.90;;;;;;4441224;32;20072;-69
2022/01/27 02:03:00;;;;;;;1.37;1.00;;;3.90;99.90;;;;;;4441695;32;20081;-69
2022/01/27 02:05:31;;;;;;;0.65;0.65;;;3.90;99.90;;;;;;4442574;32;20073;-69
2022/01/27 02:17:58;;;;;;;1.10;0.60;;;3.90;99.90;;;;;;4441082;32;20092;-69
2022/01/27 02:18:08;;;;;;;0.57;0.57;;;3.90;99.90;;;;;;4441337;32;20085;-69
2022/01/27 02:19:23;;;;;;;1.35;0.98;;;3.90;99.90;;;;;;4441820;32;20155;-69
2022/01/27 02:21:53;;;;;;;0.47;0.47;;;4.00;99.90;;;;;;4440846;32;20092;-69
2022/01/27 02:24:20;;;;;;;1.55;1.08;;;4.00;99.90;;;;;;4437965;32;20089;-69
2022/01/27 02:26:49;;;;;;;0.55;0.55;;;4.00;99.90;;;;;;4438509;32;20077;-69
2022/01/27 02:29:15;;;;;;;0.73;0.73;;;4.00;99.90;;;;;;4443319;32;20438;-69
2022/01/27 02:31:41;;;;;;;0.60;0.52;;;4.00;99.90;;;;;;4440540;32;20126;-69
2022/01/27 02:34:07;;;;;;;0.55;0.55;;;4.00;99.90;;;;;;4442181;32;20061;-69
2022/01/27 02:38:28;;;;;;;0.80;0.80;;;4.10;99.90;;;;;;4442909;32;20089;-69
2022/01/27 02:39:57;;;;;;;0.30;0.30;;;4.00;99.90;;;;;;4429153;32;20072;-69
2022/01/27 02:42:32;;;;;;;11.70;0.98;;;4.00;99.90;;;;;;4436946;32;20235;-69
2022/01/27 02:45:21;;;;;;;2.80;1.85;;;4.00;99.90;;;;;;4440184;32;20131;-69
2022/01/27 02:47:46;;;;;;;1.17;0.93;;;4.00;99.90;;;;;;4439954;32;20081;-69
2022/01/27 02:50:12;;;;;;;4.97;1.48;;;4.10;99.90;;;;;;4442067;32;20562;-68
2022/01/27 02:52:38;;;;;;;0.57;0.57;;;4.00;99.90;;;;;;4440834;32;20402;-69
2022/01/27 02:55:04;;;;;;;0.60;0.60;;;4.00;99.90;;;;;;4440709;32;20073;-69
2022/01/27 02:57:30;;;;;;;0.50;0.50;;;4.00;99.90;;;;;;4427765;32;20138;-68
2022/01/27 02:59:55;;;;;;;2.05;0.98;;;4.00;99.90;;;;;;4442861;32;20089;-68
2022/01/27 03:02:22;;;;;;;0.98;0.98;;;4.10;99.90;;;;;;4441558;32;20073;-70
2022/01/27 03:04:48;;;;;;;0.50;0.50;;;4.00;99.90;;;;;;4439449;32;20069;-69
2022/01/27 03:07:14;;;;;;;1.92;1.00;;;4.00;99.90;;;;;;4441951;32;20131;-68
2022/01/27 03:09:40;;;;;;;1.58;1.15;;;4.00;99.90;;;;;;4441268;32;20073;-69
2022/01/27 03:12:08;;;;;;;1.77;1.37;;;4.10;99.90;;;;;;4443558;32;20117;-70
2022/01/27 03:14:35;;;;;;;0.77;0.77;;;4.10;99.90;;;;;;4444290;32;20098;-68
2022/01/27 03:17:01;;;;;;;1.33;1.23;;;4.00;99.90;;;;;;4440114;32;20062;-68
2022/01/27 03:19:27;;;;;;;0.93;0.85;;;4.10;99.90;;;;;;4445152;32;20065;-70
2022/01/27 03:21:54;;;;;;;1.02;1.02;;;4.10;99.90;;;;;;4440670;32;20097;-69
2022/01/27 03:24:21;;;;;;;0.52;0.52;;;4.00;99.90;;;;;;4440983;32;20069;-69
2022/01/27 03:26:47;;;;;;;0.55;0.55;;;4.00;99.90;;;;;;4441631;32;20085;-70
2022/01/27 03:29:13;;;;;;;0.60;0.60;;;3.90;99.90;;;;;;4443832;32;20068;-69
2022/01/27 03:31:38;;;;;;;0.85;0.85;;;4.00;99.90;;;;;;4440874;32;20165;-69
2022/01/27 03:34:04;;;;;;;4.37;1.60;;;4.00;99.90;;;;;;4435782;32;20085;-69
2022/01/27 03:36:29;;;;;;;1.45;1.35;;;4.00;99.90;;;;;;4443863;32;20069;-69
2022/01/27 03:38:55;;;;;;;0.88;0.88;;;4.00;99.90;;;;;;4443112;32;20077;-69
2022/01/27 03:41:22;;;;;;;1.00;1.00;;;4.00;99.90;;;;;;4440121;32;20206;-69
2022/01/27 03:43:50;;;;;;;0.95;0.77;;;4.00;99.90;;;;;;4443302;32;20078;-69
2022/01/27 03:46:17;;;;;;;1.08;0.98;;;4.00;99.90;;;;;;4442238;32;20069;-69
2022/01/27 03:48:42;;;;;;;3.17;1.42;;;4.10;99.90;;;;;;4442979;32;20081;-69
2022/01/27 03:51:08;;;;;;;0.55;0.55;;;4.10;99.90;;;;;;4443983;32;20423;-68
2022/01/27 03:53:33;;;;;;;1.40;1.20;;;4.10;99.90;;;;;;4442483;32;20081;-69
2022/01/27 03:56:00;;;;;;;1.05;0.98;;;4.10;99.90;;;;;;4442300;32;20137;-69
2022/01/27 03:58:26;;;;;;;1.73;1.00;;;4.10;99.90;;;;;;4444798;32;20073;-69
2022/01/27 04:00:52;;;;;;;0.55;0.55;;;4.20;99.90;;;;;;4443358;32;20434;-69
2022/01/27 04:03:19;;;;;;;5.30;1.60;;;4.20;99.90;;;;;;4441677;32;20152;-69
2022/01/27 04:05:52;;;;;;;0.50;0.50;;;4.20;99.90;;;;;;4442759;32;20078;-69
2022/01/27 04:08:18;;;;;;;0.82;0.60;;;4.20;99.90;;;;;;4444195;32;20069;-69
2022/01/27 04:10:44;;;;;;;0.32;0.32;;;4.20;99.90;;;;;;4443911;32;20167;-69
2022/01/27 04:13:10;;;;;;;0.60;0.60;;;4.20;99.90;;;;;;4444185;32;20446;-69
2022/01/27 04:15:36;;;;;;;0.60;0.60;;;4.20;99.90;;;;;;4443176;32;20197;-69
2022/01/27 04:18:03;;;;;;;1.37;0.85;;;4.20;99.90;;;;;;4442404;32;20122;-69
2022/01/27 04:20:29;;;;;;;0.85;0.85;;;4.20;99.90;;;;;;4442418;32;20077;-69
2022/01/27 04:22:55;;;;;;;1.40;0.73;;;4.20;99.90;;;;;;4440760;32;20069;-69
2022/01/27 04:25:20;;;;;;;0.43;0.43;;;4.30;99.90;;;;;;4443265;32;20120;-69
2022/01/27 04:27:51;;;;;;;0.45;0.45;;;4.30;99.90;;;;;;4440133;32;20068;-69
2022/01/27 04:30:19;;;;;;;0.60;0.60;;;4.40;99.90;;;;;;4443213;32;20088;-69
2022/01/27 04:32:50;;;;;;;0.62;0.62;;;4.40;99.90;;;;;;4437527;32;20065;-68
2022/01/27 04:35:19;;;;;;;;;;;4.40;99.90;;;;;;4440649;32;86921;-68
2022/01/27 04:38:21;;;;;;;0.50;0.50;;;4.40;99.90;;;;;;4443599;32;19964;-68
2022/01/27 04:40:44;;;;;;;0.57;0.57;;;4.50;99.90;;;;;;4434976;32;20129;-68
2022/01/27 04:43:21;;;;;;;0.75;0.75;;;4.50;99.90;;;;;;4444066;32;20081;-68
2022/01/27 04:48:17;;;;;;;0.40;0.40;;;4.50;99.90;;;;;;4442983;32;20053;-69
2022/01/27 04:50:43;;;;;;;0.37;0.37;;;4.50;99.90;;;;;;4441628;32;20088;-69
2022/01/27 04:53:16;;;;;;;0.40;0.40;;;4.50;99.90;;;;;;4441707;32;20080;-69
2022/01/27 04:55:41;;;;;;;1.65;0.80;;;4.50;99.90;;;;;;4440902;32;20076;-69
2022/01/27 04:58:12;;;;;;;0.40;0.40;;;4.50;99.90;;;;;;4442683;32;20441;-69
2022/01/27 05:00:38;;;;;;;0.47;0.47;;;4.50;99.90;;;;;;4443239;32;20077;-69
2022/01/27 05:03:12;;;;;;;2.83;0.77;;;4.50;99.90;;;;;;4441983;32;20535;-69
2022/01/27 05:05:39;;;;;;;0.57;0.57;;;4.50;99.90;;;;;;4440525;32;20387;-69
2022/01/27 05:08:06;;;;;;;0.40;0.40;;;4.50;99.90;;;;;;4442494;32;20081;-69
2022/01/27 05:10:34;;;;;;;0.40;0.40;;;4.50;99.90;;;;;;4442267;32;20072;-69
2022/01/27 05:13:08;;;;;;;0.65;0.65;;;4.50;99.90;;;;;;4443509;32;20077;-69
2022/01/27 05:15:41;;;;;;;1.27;1.00;;;4.50;99.90;;;;;;4437512;32;20069;-69
2022/01/27 05:18:06;;;;;;;0.30;0.30;;;4.60;99.90;;;;;;4443837;32;20095;-68
2022/01/27 05:20:32;;;;;;;0.73;0.50;;;4.50;99.90;;;;;;4438439;32;20064;-69
2022/01/27 05:22:57;;;;;;;0.43;0.43;;;4.60;99.90;;;;;;4434351;32;20064;-69
2022/01/27 05:25:23;;;;;;;1.62;1.05;;;4.60;99.90;;;;;;4441569;32;20509;-69
2022/01/27 05:27:48;;;;;;;0.82;0.82;;;4.60;99.90;;;;;;4441279;32;20104;-69
2022/01/27 05:30:14;;;;;;;0.68;0.55;;;4.60;99.90;;;;;;4442067;32;20068;-69
2022/01/27 05:32:39;;;;;;;0.65;0.65;;;4.60;99.90;;;;;;4443519;32;20434;-69
2022/01/27 05:35:05;;;;;;;1.35;0.88;;;4.60;99.90;;;;;;4441860;32;20081;-69
2022/01/27 05:37:30;;;;;;;0.50;0.50;;;4.50;99.90;;;;;;4443449;32;20064;-69
2022/01/27 05:39:55;;;;;;;0.70;0.70;;;4.60;99.90;;;;;;4442084;32;20100;-70
2022/01/27 05:42:21;;;;;;;2.12;0.55;;;4.60;99.90;;;;;;4442649;32;20143;-69
2022/01/27 05:44:46;;;;;;;0.50;0.50;;;4.50;99.90;;;;;;4442685;32;20557;-69
2022/01/27 05:47:13;;;;;;;0.45;0.45;;;4.50;99.90;;;;;;4442381;32;20082;-68
2022/01/27 05:49:38;;;;;;;1.65;0.68;;;4.50;99.90;;;;;;4441871;32;20089;-69
2022/01/27 05:52:04;;;;;;;1.00;0.57;;;4.50;99.90;;;;;;4442086;32;20072;-70
2022/01/27 05:54:31;;;;;;;0.40;0.40;;;4.40;99.90;;;;;;4441985;32;20059;-68
2022/01/27 05:56:57;;;;;;;0.50;0.50;;;4.50;99.90;;;;;;4441983;32;20533;-68
2022/01/27 05:59:22;;;;;;;0.40;0.40;;;4.50;99.90;;;;;;4440067;32;20076;-68
2022/01/27 06:01:48;;;;;;;0.43;0.43;;;4.50;99.90;;;;;;4417492;32;20081;-70
2022/01/27 06:04:13;;;;;;;0.68;0.68;;;4.60;99.90;;;;;;4436255;32;20072;-70
2022/01/27 06:06:39;;;;;;;0.50;0.50;;;4.50;99.90;;;;;;4438753;32;20113;-68
2022/01/27 06:09:05;;;;;;;12.02;0.90;;;4.50;99.90;;;;;;4440549;32;20084;-68
2022/01/27 06:11:30;;;;;;;0.40;0.40;;;4.40;99.90;;;;;;4438002;32;20069;-67
2022/01/27 06:13:56;;;;;;;0.50;0.50;;;4.40;99.90;;;;;;4440613;32;20073;-67
2022/01/27 06:16:21;;;;;;;0.40;0.40;;;4.50;99.90;;;;;;4439616;32;20069;-66
2022/01/27 06:18:47;;;;;;;1.17;0.82;;;4.50;99.90;;;;;;4423464;32;20054;-66
2022/01/27 06:21:14;;;;;;;0.68;0.68;;;4.50;99.90;;;;;;4440743;32;20119;-65
2022/01/27 06:23:40;;;;;;;3.03;1.62;;;4.50;99.90;;;;;;4440261;32;20053;-65
2022/01/27 06:26:05;;;;;;;0.55;0.55;;;4.40;99.90;;;;;;4431185;32;20093;-65
2022/01/27 06:28:31;;;;;;;0.60;0.60;;;4.40;99.90;;;;;;4428415;32;20124;-67
2022/01/27 06:30:57;;;;;;;9.63;1.25;;;4.40;99.90;;;;;;4420695;32;20201;-65
2022/01/27 06:33:23;;;;;;;0.40;0.40;;;4.40;99.90;;;;;;4424788;32;20085;-64
2022/01/27 06:35:49;;;;;;;0.40;0.40;;;4.40;99.90;;;;;;4433532;32;20478;-65
2022/01/27 06:38:14;;;;;;;0.82;0.82;;;4.40;99.90;;;;;;4432296;32;20086;-66
2022/01/27 06:40:40;;;;;;;2.17;1.15;;;4.40;99.90;;;;;;4432601;32;20544;-65
2022/01/27 06:43:05;;;;;;;0.43;0.43;;;4.30;99.90;;;;;;4438058;32;20464;-65
2022/01/27 06:45:31;;;;;;;0.50;0.50;;;4.30;99.90;;;;;;4434234;32;20223;-66
2022/01/27 06:47:58;;;;;;;0.70;0.70;;;4.30;99.90;;;;;;4434736;32;20096;-66
2022/01/27 06:50:23;;;;;;;6.70;1.02;;;4.30;99.90;;;;;;4434705;32;20544;-65
2022/01/27 06:52:49;;;;;;;0.62;0.57;;;4.30;99.90;;;;;;4435875;32;20156;-65
2022/01/27 06:55:17;;;;;;;0.50;0.50;;;4.20;99.90;;;;;;4427594;32;20557;-64
2022/01/27 06:57:44;;;;;;;0.88;0.75;;;4.30;99.90;;;;;;4421951;32;20479;-65
2022/01/27 07:00:10;;;;;;;0.65;0.65;;;4.20;99.90;;;;;;4425209;32;20108;-67
2022/01/27 07:02:35;;;;;;;0.45;0.45;;;4.20;99.90;;;;;;4427380;32;20812;-66
2022/01/27 07:05:01;;;;;;;0.40;0.40;;;4.20;99.90;;;;;;4431535;32;20053;-65
2022/01/27 07:07:26;;;;;;;0.57;0.57;;;4.20;99.90;;;;;;4431666;32;20072;-65
2022/01/27 07:09:52;;;;;;;0.40;0.40;;;4.20;99.90;;;;;;4420459;32;20100;-65
2022/01/27 07:12:18;;;;;;;0.62;0.62;;;4.20;99.90;;;;;;4420994;32;20200;-65
2022/01/27 07:14:43;;;;;;;0.85;0.70;;;4.20;99.90;;;;;;4429389;32;20525;-66
2022/01/27 07:17:09;;;;;;;1.45;1.30;;;4.30;99.90;;;;;;4428057;32;20126;-66
2022/01/27 07:19:34;;;;;;;0.70;0.70;;;4.30;99.90;;;;;;4427817;32;20108;-66
2022/01/27 07:22:00;;;;;;;2.22;1.35;;;4.40;99.90;;;;;;4426932;32;20805;-66
2022/01/27 07:24:25;;;;;;;2.03;1.02;;;4.40;99.90;;;;;;4425187;32;20120;-66
2022/01/27 07:26:51;;;;;;;3.78;1.33;;;4.40;99.90;;;;;;4429974;32;20088;-66
2022/01/27 07:29:17;;;;;;;1.17;0.73;;;4.40;99.90;;;;;;4432676;32;20140;-65
2022/01/27 07:31:43;;;;;;;0.60;0.60;;;4.50;99.90;;;;;;4424746;32;20129;-66
2022/01/27 07:34:08;;;;;;;12.20;1.58;;;4.40;99.90;;;;;;4426486;32;20101;-66
2022/01/27 07:36:34;;;;;;;2.53;1.12;;;4.40;99.90;;;;;;4426962;32;20150;-66
2022/01/27 07:39:01;;;;;;;0.80;0.80;;;4.40;99.90;;;;;;4431200;32;20077;-65
2022/01/27 07:41:27;;;;;;;0.70;0.62;;;4.40;99.90;;;;;;4435120;32;20069;-69
2022/01/27 07:43:52;;;;;;;1.35;1.25;;;4.50;99.90;;;;;;4425118;32;20128;-69
2022/01/27 07:46:21;;;;;;;0.70;0.70;;;4.40;99.90;;;;;;4425700;32;20264;-69
2022/01/27 07:48:50;;;;;;;8.57;1.25;;;4.40;99.90;;;;;;4419307;32;20104;-69
2022/01/27 07:51:16;;;;;;;0.90;0.90;;;4.30;99.90;;;;;;4423411;32;20092;-70
2022/01/27 07:53:43;;;;;;;0.60;0.60;;;4.30;99.90;;;;;;4425767;32;20065;-69
2022/01/27 07:56:08;;;;;;;3.95;1.90;;;4.40;99.90;;;;;;4420858;32;20157;-70
2022/01/27 07:58:38;;;;;;;1.37;1.27;;;4.20;99.90;;;;;;4421969;32;20077;-70
2022/01/27 08:01:04;;;;;;;0.82;0.82;;;4.30;99.90;;;;;;4429815;32;20084;-70
2022/01/27 08:03:29;;;;;;;1.10;1.02;;;4.20;99.90;;;;;;4417503;32;21313;-70
2022/01/27 08:05:55;;;;;;;2.28;0.98;;;4.30;99.90;;;;;;4426989;32;20130;-70
2022/01/27 08:08:20;;;;;;;1.60;1.27;;;4.20;99.90;;;;;;4421451;32;20114;-70
2022/01/27 08:10:48;;;;;;;1.00;0.85;;;4.30;99.90;;;;;;4422677;32;20102;-70
2022/01/27 08:13:13;;;;;;;23.58;2.17;;;4.30;99.90;;;;;;4420847;32;20499;-69
2022/01/27 08:15:39;;;;;;;0.70;0.70;;;4.30;99.90;;;;;;4424149;32;20117;-70
2022/01/27 08:18:05;;;;;;;2.78;2.10;;;4.40;99.90;;;;;;4420328;32;20753;-70
2022/01/27 08:20:31;;;;;;;0.90;0.90;;;4.40;99.90;;;;;;4427158;32;20069;-70
2022/01/27 08:22:57;;;;;;;0.60;0.52;;;4.40;99.90;;;;;;4423747;32;20058;-70
2022/01/27 08:25:23;;;;;;;1.65;1.25;;;4.30;99.90;;;;;;4424688;32;20513;-70
2022/01/27 08:27:52;;;;;;;1.05;0.95;;;4.30;99.90;;;;;;4421474;32;20619;-70
2022/01/27 08:30:19;;;;;;;1.70;1.08;;;4.40;99.90;;;;;;4421749;32;20234;-70
2022/01/27 08:35:15;;;;;;;1.50;1.35;;;4.40;99.90;;;;;;4417133;32;20069;-68
2022/01/27 08:37:40;;;;;;;1.58;0.98;;;4.40;99.90;;;;;;4419629;32;20787;-70
2022/01/27 08:40:08;;;;;;;2.10;1.42;;;4.30;99.90;;;;;;4426594;32;20152;-70
2022/01/27 08:42:33;;;;;;;7.75;2.75;;;4.40;99.90;;;;;;4427672;32;20366;-69
2022/01/27 08:44:59;;;;;;;1.77;0.93;;;4.40;99.90;;;;;;4429873;32;20224;-70
2022/01/27 08:47:26;;;;;;;1.23;0.95;;;4.30;99.90;;;;;;4419210;32;20146;-70
2022/01/27 08:49:51;;;;;;;2.40;1.27;;;4.40;99.90;;;;;;4417051;32;20081;-69
2022/01/27 08:52:17;;;;;;;0.70;0.70;;;4.40;99.90;;;;;;4415862;32;21091;-69
2022/01/27 08:54:42;;;;;;;0.55;0.55;;;4.40;99.90;;;;;;4413920;32;20411;-69
2022/01/27 08:57:10;;;;;;;0.77;0.70;;;4.40;99.90;;;;;;4415536;32;20117;-70
2022/01/27 08:59:36;;;;;;;0.57;0.57;;;4.40;99.90;;;;;;4424476;32;20102;-70
2022/01/27 09:02:01;;;;;;;2.50;1.65;;;4.40;99.90;;;;;;4418798;32;20089;-69
2022/01/27 09:04:27;;;;;;;1.60;1.20;;;4.50;99.90;;;;;;4422295;32;20101;-70
2022/01/27 09:06:52;;;;;;;2.22;1.17;;;4.40;99.90;;;;;;4422952;32;20096;-70
2022/01/27 09:09:19;;;;;;;0.40;0.40;;;4.30;99.90;;;;;;4421829;32;20085;-70
2022/01/27 09:11:46;;;;;;;4.90;1.27;;;4.30;99.90;;;;;;4426002;32;20085;-70
2022/01/27 09:14:13;;;;;;;1.48;1.37;;;4.40;99.90;;;;;;4427603;32;20088;-71
2022/01/27 09:16:39;;;;;;;1.02;0.82;;;4.30;99.90;;;;;;4433716;32;20076;-71
2022/01/27 09:19:05;;;;;;;0.65;0.65;;;4.30;99.90;;;;;;4428924;32;20117;-71
2022/01/27 09:21:42;;;;;;;1.42;1.33;;;4.30;99.90;;;;;;4426524;32;20327;-71
2022/01/27 09:24:07;;;;;;;0.40;0.40;;;4.30;99.90;;;;;;4427488;32;20565;-71
2022/01/27 09:26:52;;;;;;;0.60;0.60;;;4.20;99.90;;;;;;4420268;32;20093;-71
2022/01/27 09:29:20;;;;;;;3.10;2.17;;;4.30;99.90;;;;;;4427832;32;20101;-70
2022/01/27 09:31:47;;;;;;;0.70;0.70;;;4.20;99.90;;;;;;4425870;32;20251;-71
2022/01/27 09:34:13;;;;;;;0.93;0.68;;;4.30;99.90;;;;;;4428099;32;20165;-71
2022/01/27 09:36:38;;;;;;;0.60;0.60;;;4.30;99.90;;;;;;4424336;32;20100;-70
2022/01/27 09:39:04;;;;;;;1.40;0.80;;;4.30;99.90;;;;;;4429092;32;20100;-70
2022/01/27 09:41:35;;;;;;;2.83;1.73;;;4.20;99.90;;;;;;4426223;32;20205;-70
2022/01/27 09:44:01;;;;;;;1.00;0.93;;;4.30;99.90;;;;;;4429616;32;20189;-70
2022/01/27 09:46:27;;;;;;;0.75;0.75;;;4.20;99.90;;;;;;4420012;32;20068;-70
2022/01/27 09:48:54;;;;;;;2.28;1.20;;;4.30;99.90;;;;;;4426533;32;20545;-70
2022/01/27 09:53:47;;;;;;;0.47;0.47;;;4.10;99.90;;;;;;4421021;32;20189;-70
2022/01/27 09:56:14;;;;;;;1.08;1.00;;;4.10;99.90;;;;;;4421653;32;20093;-70
2022/01/27 09:58:39;;;;;;;2.30;1.00;;;4.10;99.90;;;;;;4420604;32;20585;-70
2022/01/27 10:01:05;;;;;;;0.65;0.65;;;4.00;99.90;;;;;;4415709;32;20144;-70
2022/01/27 10:03:31;;;;;;;1.10;1.05;;;4.00;99.90;;;;;;4414743;32;20156;-67
2022/01/27 10:06:14;;;;;;;0.50;0.50;;;3.90;99.90;;;;;;4422182;32;20069;-68
2022/01/27 10:08:41;;;;;;;1.35;1.05;;;3.90;99.90;;;;;;4424770;32;20085;-68
2022/01/27 10:11:22;;;;;;;0.50;0.50;;;3.80;99.90;;;;;;4416746;32;20093;-68
2022/01/27 10:13:49;;;;;;;1.02;1.00;;;3.80;99.90;;;;;;4420135;32;20081;-69
2022/01/27 10:16:36;;;;;;;3.12;0.62;;;3.80;99.90;;;;;;4430935;32;20169;-67
2022/01/27 10:19:05;;;;;;;0.62;0.62;;;3.90;99.90;;;;;;4422631;32;20603;-67
2022/01/27 10:21:32;;;;;;;0.68;0.68;;;3.90;99.90;;;;;;4418279;32;20117;-67
2022/01/27 10:24:14;;;;;;;0.60;0.60;;;3.80;99.90;;;;;;4418965;32;21113;-68
2022/01/27 10:26:45;;;;;;;0.50;0.50;;;3.80;99.90;;;;;;4418593;32;20717;-68
2022/01/27 10:29:17;;;;;;;24.80;1.33;;;3.80;99.90;;;;;;4424134;32;20085;-68
2022/01/27 10:31:42;;;;;;;0.45;0.45;;;3.80;99.90;;;;;;4423247;32;20109;-68
2022/01/27 10:34:10;;;;;;;0.88;0.88;;;3.80;99.90;;;;;;4412908;32;20093;-67
2022/01/27 10:36:40;;;;;;;22.67;1.30;;;3.80;99.90;;;;;;4382291;32;20657;-68
2022/01/27 10:39:10;;;;;;;1.30;0.82;;;3.80;99.90;;;;;;4407718;32;20132;-67
2022/01/27 10:41:39;;;;;;;3.22;1.85;;;3.80;99.90;;;;;;4390034;32;20577;-68
2022/01/27 10:44:09;;;;;;;0.47;0.47;;;3.80;99.90;;;;;;4389804;32;20548;-67
2022/01/27 10:46:38;;;;;;;5.30;0.82;;;3.80;99.90;;;;;;4386949;32;20094;-68
2022/01/27 10:49:11;;;;;;;1.58;1.48;;;3.80;99.90;;;;;;4400145;32;20415;-67
2022/01/27 10:51:45;;;;;;;1.55;1.35;;;3.80;99.90;;;;;;4382270;32;20156;-68
2022/01/27 10:54:49;;;;;;;2.08;1.05;;;3.90;99.90;;;;;;4380730;32;20118;-68
2022/01/27 10:57:02;;;;;;;0.65;0.65;;;3.90;99.90;;;;;;4382016;32;20118;-67
2022/01/27 10:59:28;;;;;;;0.40;0.40;;;3.90;99.90;;;;;;4399698;32;20142;-68
2022/01/27 11:01:55;;;;;;;0.98;0.98;;;4.00;99.90;;;;;;4385038;32;20093;-67
2022/01/27 11:04:34;;;;;;;0.88;0.88;;;4.00;99.90;;;;;;4402632;32;20080;-68
2022/01/27 11:07:01;;;;;;;1.25;1.15;;;4.00;99.90;;;;;;4396371;32;20105;-69
2022/01/27 11:09:33;;;;;;;2.78;1.52;;;4.00;99.90;;;;;;4375534;32;20779;-69
2022/01/27 11:11:59;;;;;;;1.95;1.27;;;4.00;99.90;;;;;;4400803;32;20106;-68
2022/01/27 11:14:25;;;;;;;0.60;0.60;;;3.90;99.90;;;;;;4401921;32;20495;-68
2022/01/27 11:16:56;;;;;;;0.43;0.43;;;4.00;99.90;;;;;;4397483;32;20199;-68
2022/01/27 11:20:06;;;;;;;1.90;1.15;;;4.00;99.90;;;;;;4402348;32;20126;-68
2022/01/27 11:22:26;;;;;;;1.50;1.10;;;4.00;99.90;;;;;;4387038;32;20150;-68
2022/01/27 11:25:49;;;;;;;2.83;0.93;;;4.00;99.90;;;;;;4398347;32;20591;-70
2022/01/27 11:27:50;;;;;;;0.50;0.50;;;4.00;99.90;;;;;;4387585;32;20092;-68
2022/01/27 11:30:19;;;;;;;3.75;1.35;;;4.00;99.90;;;;;;4401451;32;20133;-71
2022/01/27 11:32:55;;;;;;;0.45;0.45;;;4.00;99.90;;;;;;4388265;32;20098;-69
2022/01/27 11:35:23;;;;;;;0.70;0.70;;;4.00;99.90;;;;;;4417682;32;20165;-70
2022/01/27 11:37:52;;;;;;;1.52;1.17;;;4.10;99.90;;;;;;4414142;32;20510;-69
2022/01/27 11:40:20;;;;;;;0.85;0.85;;;4.10;99.90;;;;;;4417296;32;20105;-71
2022/01/27 11:43:04;;;;;;;0.57;0.57;;;4.10;99.90;;;;;;4416175;32;20096;-71
2022/01/27 11:45:34;;;;;;;2.37;1.55;;;4.10;99.90;;;;;;4422803;32;20090;-70
2022/01/27 11:48:07;;;;;;;0.40;0.40;;;4.10;99.90;;;;;;4419980;32;20842;-70
2022/01/27 11:50:50;;;;;;;1.12;1.08;;;4.20;99.90;;;;;;4419100;32;20121;-70
2022/01/27 11:53:39;;;;;;;0.70;0.70;;;4.10;99.90;;;;;;4422419;32;20105;-70
2022/01/27 11:56:07;;;;;;;0.55;0.55;;;4.10;99.90;;;;;;4411764;32;20093;-70
2022/01/27 11:58:50;;;;;;;0.70;0.70;;;4.10;99.90;;;;;;4417117;32;20597;-70
2022/01/27 12:01:21;;;;;;;0.60;0.60;;;4.10;99.90;;;;;;4422225;32;20080;-70
2022/01/27 12:04:07;;;;;;;0.70;0.70;;;4.10;99.90;;;;;;4418672;32;20089;-70
2022/01/27 12:07:01;;;;;;;2.72;1.23;;;4.20;99.90;;;;;;4413104;32;20561;-71
2022/01/27 12:09:29;;;;;;;0.70;0.70;;;4.10;99.90;;;;;;4412817;32;20078;-70
2022/01/27 12:12:11;;;;;;;3.65;1.20;;;4.10;99.90;;;;;;4415052;32;20557;-70
2022/01/27 12:14:41;;;;;;;0.68;0.68;;;4.10;99.90;;;;;;4419918;32;20605;-70
2022/01/27 12:17:12;;;;;;;0.50;0.50;;;4.10;99.90;;;;;;4417598;32;20073;-71
2022/01/27 12:20:00;;;;;;;2.00;1.52;;;4.10;99.90;;;;;;4417611;32;20171;-71
2022/01/27 12:22:50;;;;;;;1.15;1.05;;;4.10;99.90;;;;;;4420903;32;20069;-71
2022/01/27 12:25:17;;;;;;;1.05;1.05;;;4.00;99.90;;;;;;4422546;32;20382;-71
2022/01/27 12:27:58;;;;;;;1.55;0.98;;;4.10;99.90;;;;;;4428465;32;20191;-71
2022/01/27 12:30:23;;;;;;;;;;;4.10;99.90;;;;;;4431146;32;20536;-70
2022/01/27 12:32:54;;;;;;;0.37;0.37;;;4.10;99.90;;;;;;4431243;32;20015;-72
2022/01/27 12:35:20;;;;;;;1.80;1.08;;;4.10;99.90;;;;;;4432465;32;20138;-72
2022/01/27 12:37:47;;;;;;;0.68;0.68;;;4.10;99.90;;;;;;4430868;32;20077;-72
2022/01/27 12:40:33;;;;;;;2.35;1.42;;;4.10;99.90;;;;;;4433352;32;20083;-72
2022/01/27 12:43:02;;;;;;;3.50;1.85;;;4.10;99.90;;;;;;4424785;32;20123;-72
2022/01/27 12:45:31;;;;;;;1.27;1.00;;;4.10;99.90;;;;;;4430326;32;20370;-71
2022/01/27 12:48:01;;;;;;;0.55;0.55;;;4.20;99.90;;;;;;4429443;32;20674;-72
2022/01/27 12:50:28;;;;;;;2.17;1.33;;;4.20;99.90;;;;;;4428167;32;20089;-72
2022/01/27 12:53:02;;;;;;;0.90;0.90;;;4.20;99.90;;;;;;4432723;32;20805;-71
2022/01/27 12:55:31;;;;;;;0.88;0.88;;;4.20;99.90;;;;;;4436415;32;20152;-71
2022/01/27 12:58:00;;;;;;;1.48;1.27;;;4.30;99.90;;;;;;4437415;32;20107;-72
2022/01/27 13:00:28;;;;;;;1.50;1.08;;;4.40;99.90;;;;;;4435055;32;20098;-71
2022/01/27 13:02:59;;;;;;;0.82;0.82;;;4.40;99.90;;;;;;4436307;32;20126;-71
2022/01/27 13:05:32;;;;;;;;;;;4.40;99.90;;;;;;4436323;32;20078;-72
2022/01/27 13:08:04;;;;;;;0.60;0.52;;;4.40;99.90;;;;;;4435896;32;20001;-71
2022/01/27 13:10:29;;;;;;;0.80;0.80;;;4.50;99.90;;;;;;4433894;32;20388;-71
2022/01/27 13:12:57;;;;;;;0.45;0.45;;;4.50;99.90;;;;;;4434965;32;20072;-70
2022/01/27 13:15:27;;;;;;;1.30;1.05;;;4.40;99.90;;;;;;4434819;32;20151;-70
2022/01/27 13:17:59;;;;;;;1.37;1.12;;;4.50;99.90;;;;;;4431650;32;20069;-71
2022/01/27 13:20:32;;;;;;;0.95;0.85;;;4.50;99.90;;;;;;4434116;32;20130;-71
2022/01/27 13:23:07;;;;;;;2.37;1.48;;;4.50;99.90;;;;;;4433315;32;20245;-71
2022/01/27 13:25:42;;;;;;;4.20;1.65;;;4.50;99.90;;;;;;4435775;32;20072;-71
2022/01/27 13:28:10;;;;;;;23.90;1.48;;;4.60;99.90;;;;;;4434156;32;20081;-72
2022/01/27 13:30:36;;;;;;;1.15;1.05;;;4.60;99.90;;;;;;4434982;32;20512;-72
2022/01/27 13:33:06;;;;;;;0.50;0.50;;;4.60;99.90;;;;;;4436279;32;20076;-71
2022/01/27 13:35:34;;;;;;;8.25;1.35;;;4.70;99.90;;;;;;4435991;32;20057;-71